createdAt,value
2022-07-29T00:00:59.748Z,100979.81
2022-07-29T00:03:26.547Z,100972.69
2022-07-29T00:05:54.906Z,100978.81
2022-07-29T00:08:21.610Z,100972.47
2022-07-29T00:10:48.857Z,100978.69
2022-07-29T00:13:15.785Z,100971.41
2022-07-29T00:15:42.900Z,100970.22
2022-07-29T00:18:09.562Z,100981.34
2022-07-29T00:20:36.265Z,100986.34
2022-07-29T00:23:02.946Z,100993.41
2022-07-29T00:25:29.559Z,100998.47
2022-07-29T00:27:57.848Z,100999.00
2022-07-29T00:30:24.589Z,101002.44
2022-07-29T00:32:51.275Z,101003.88
2022-07-29T00:35:36.531Z,101012.47
2022-07-29T00:38:03.110Z,101008.97
2022-07-29T00:40:29.799Z,101017.13
2022-07-29T00:42:56.682Z,101014.94
2022-07-29T00:45:23.543Z,101011.66
2022-07-29T00:47:50.446Z,101021.16
2022-07-29T00:50:17.980Z,101022.03
2022-07-29T00:52:44.885Z,101029.63
2022-07-29T00:55:13.991Z,101037.06
2022-07-29T00:57:42.385Z,101040.56
2022-07-29T01:00:13.116Z,101022.06
2022-07-29T01:02:39.650Z,101014.94
2022-07-29T01:05:07.425Z,101012.00
2022-07-29T01:07:37.236Z,101015.19
2022-07-29T01:10:05.637Z,101018.94
2022-07-29T01:12:34.462Z,101012.50
2022-07-29T01:15:02.601Z,101016.03
2022-07-29T01:17:53.193Z,101012.84
2022-07-29T01:21:07.020Z,101000.41
2022-07-29T01:23:52.475Z,101010.44
2022-07-29T01:26:32.414Z,101009.41
2022-07-29T01:29:08.365Z,100992.88
2022-07-29T01:32:02.592Z,100987.16
2022-07-29T01:35:11.505Z,101004.44
2022-07-29T01:38:10.487Z,100997.16
2022-07-29T01:40:46.934Z,100993.34
2022-07-29T01:43:21.277Z,100994.00
2022-07-29T01:45:51.814Z,101000.19
2022-07-29T01:48:25.825Z,100999.00
2022-07-29T01:51:08.715Z,100991.06
2022-07-29T01:53:56.071Z,101000.19
2022-07-29T01:56:24.135Z,100991.53
2022-07-29T01:58:53.208Z,100989.31
2022-07-29T02:01:21.240Z,100985.81
2022-07-29T02:03:49.964Z,100980.88
2022-07-29T02:06:20.184Z,100975.56
2022-07-29T02:08:48.811Z,100973.38
2022-07-29T02:11:15.759Z,100982.59
2022-07-29T02:13:44.110Z,100980.59
2022-07-29T02:16:11.629Z,100977.94
2022-07-29T02:18:41.855Z,100978.72
2022-07-29T02:21:14.746Z,100983.69
2022-07-29T02:23:50.981Z,100997.09
2022-07-29T02:26:20.472Z,100985.88
2022-07-29T02:28:48.439Z,100985.41
2022-07-29T02:31:17.608Z,100992.03
2022-07-29T02:33:46.777Z,100996.91
2022-07-29T02:36:14.364Z,100994.19
2022-07-29T02:38:52.680Z,100984.94
2022-07-29T02:41:30.625Z,100989.81
2022-07-29T02:44:04.639Z,100990.78
2022-07-29T02:46:35.615Z,100983.72
2022-07-29T02:49:17.313Z,100989.28
2022-07-29T02:51:53.968Z,100980.34
2022-07-29T02:54:34.794Z,100986.00
2022-07-29T02:57:07.336Z,100984.53
2022-07-29T02:59:37.609Z,100979.97
2022-07-29T03:02:06.396Z,100980.38
2022-07-29T03:04:35.367Z,100979.94
2022-07-29T03:07:03.076Z,100985.06
2022-07-29T03:09:31.187Z,100982.72
2022-07-29T03:11:58.187Z,100990.94
2022-07-29T03:14:25.489Z,100984.56
2022-07-29T03:16:53.050Z,100987.00
2022-07-29T03:19:21.352Z,100987.75
2022-07-29T03:21:48.315Z,100983.41
2022-07-29T03:24:29.244Z,100983.69
2022-07-29T03:26:57.543Z,100981.13
2022-07-29T03:29:24.632Z,100973.53
2022-07-29T03:31:51.403Z,100971.44
2022-07-29T03:34:18.721Z,100968.41
2022-07-29T03:36:45.732Z,100968.00
2022-07-29T03:39:15.500Z,100964.81
2022-07-29T03:41:43.573Z,100967.25
2022-07-29T03:44:10.792Z,100966.41
2022-07-29T03:46:40.077Z,100958.19
2022-07-29T03:49:09.530Z,100953.31
2022-07-29T03:51:36.407Z,100956.72
2022-07-29T03:54:09.535Z,100955.50
2022-07-29T03:56:40.852Z,100959.81
2022-07-29T03:59:08.404Z,100951.25
2022-07-29T04:01:36.128Z,100947.72
2022-07-29T04:04:04.851Z,100954.31
2022-07-29T04:06:39.457Z,100956.41
2022-07-29T04:09:06.155Z,100959.50
2022-07-29T04:12:03.209Z,100957.81
2022-07-29T04:14:25.841Z,100970.78
2022-07-29T04:16:52.589Z,100979.28
2022-07-29T04:19:19.224Z,100981.16
2022-07-29T04:21:46.272Z,100988.16
2022-07-29T04:24:13.267Z,100981.28
2022-07-29T04:26:40.006Z,100981.19
2022-07-29T04:29:06.707Z,100979.59
2022-07-29T04:31:33.498Z,100989.56
2022-07-29T04:34:02.817Z,100997.28
2022-07-29T04:36:30.866Z,100993.50
2022-07-29T04:38:57.691Z,100997.66
2022-07-29T04:41:32.747Z,101001.09
2022-07-29T04:44:02.025Z,100993.41
2022-07-29T04:46:29.194Z,100996.56
2022-07-29T04:48:56.194Z,101006.47
2022-07-29T04:51:23.113Z,101005.72
2022-07-29T04:53:51.524Z,101006.97
2022-07-29T04:56:18.136Z,101021.03
2022-07-29T04:58:44.764Z,101020.44
2022-07-29T05:01:12.039Z,101022.13
2022-07-29T05:03:38.911Z,101024.22
2022-07-29T05:06:05.605Z,101029.00
2022-07-29T05:08:33.600Z,101025.81
2022-07-29T05:11:11.321Z,101042.06
2022-07-29T05:13:46.321Z,101044.66
2022-07-29T05:16:14.630Z,101042.09
2022-07-29T05:18:41.876Z,101038.47
2022-07-29T05:21:08.571Z,101040.81
2022-07-29T05:23:35.204Z,101039.69
2022-07-29T05:26:01.895Z,101042.22
2022-07-29T05:28:28.531Z,101046.41
2022-07-29T05:30:55.246Z,101044.28
2022-07-29T05:33:35.886Z,101044.69
2022-07-29T05:36:08.235Z,101041.06
2022-07-29T05:38:38.691Z,101047.56
2022-07-29T05:41:06.383Z,101042.44
2022-07-29T05:43:33.080Z,101044.25
2022-07-29T05:46:00.102Z,101038.97
2022-07-29T05:48:26.985Z,101053.84
2022-07-29T05:50:54.120Z,101048.28
2022-07-29T05:53:21.166Z,101057.75
2022-07-29T05:55:48.814Z,101049.50
2022-07-29T05:58:16.052Z,101062.88
2022-07-29T06:00:42.998Z,101059.41
2022-07-29T06:03:09.657Z,101067.28
2022-07-29T06:05:36.300Z,101061.06
2022-07-29T06:08:06.739Z,101070.56
2022-07-29T06:10:34.672Z,101078.66
2022-07-29T06:13:01.574Z,101079.44
2022-07-29T06:15:28.226Z,101078.00
2022-07-29T06:17:59.973Z,101075.06
2022-07-29T06:20:32.113Z,101076.53
2022-07-29T06:22:59.683Z,101071.94
2022-07-29T06:25:26.859Z,101078.88
2022-07-29T06:27:53.589Z,101078.56
2022-07-29T06:30:20.535Z,101077.34
2022-07-29T06:32:47.734Z,101082.03
2022-07-29T06:38:01.171Z,101083.94
2022-07-29T06:40:46.411Z,101086.31
2022-07-29T06:43:13.045Z,101089.19
2022-07-29T06:45:42.438Z,101091.47
2022-07-29T06:48:10.543Z,101098.88
2022-07-29T06:50:37.408Z,101102.97
2022-07-29T06:53:04.517Z,101098.94
2022-07-29T06:55:31.225Z,101093.53
2022-07-29T06:57:57.921Z,101096.97
2022-07-29T07:00:24.837Z,101096.06
2022-07-29T07:02:51.667Z,101094.94
2022-07-29T07:05:18.411Z,101092.22
2022-07-29T07:07:45.223Z,101099.13
2022-07-29T07:10:11.999Z,101092.59
2022-07-29T07:12:38.675Z,101102.00
2022-07-29T07:15:06.079Z,101101.13
2022-07-29T07:17:32.744Z,101103.19
2022-07-29T07:19:59.524Z,101098.78
2022-07-29T07:22:26.245Z,101096.06
2022-07-29T07:24:52.840Z,101091.47
2022-07-29T07:27:19.501Z,101100.56
2022-07-29T07:29:46.157Z,101094.72
2022-07-29T07:32:14.441Z,101096.47
2022-07-29T07:34:41.216Z,101095.69
2022-07-29T07:37:09.439Z,101095.38
2022-07-29T07:39:36.124Z,101087.41
2022-07-29T07:42:02.770Z,101079.72
2022-07-29T07:44:29.368Z,101090.00
2022-07-29T07:46:56.024Z,101084.03
2022-07-29T07:49:22.927Z,101087.75
2022-07-29T07:51:50.806Z,101076.78
2022-07-29T07:54:20.494Z,101073.19
2022-07-29T07:56:50.005Z,101085.00
2022-07-29T07:59:20.075Z,101088.97
2022-07-29T08:01:48.402Z,101097.06
2022-07-29T08:04:27.292Z,101093.94
2022-07-29T08:06:55.624Z,101095.53
2022-07-29T08:09:29.166Z,101093.50
2022-07-29T08:11:56.974Z,101084.84
2022-07-29T08:14:23.908Z,101081.13
2022-07-29T08:16:50.675Z,101079.88
2022-07-29T08:19:17.586Z,101079.88
2022-07-29T08:21:44.253Z,101075.78
2022-07-29T08:24:29.458Z,101070.38
2022-07-29T08:26:56.122Z,101068.28
2022-07-29T08:29:22.748Z,101080.47
2022-07-29T08:31:49.511Z,101064.97
2022-07-29T08:34:16.169Z,101064.13
2022-07-29T08:36:42.930Z,101058.16
2022-07-29T08:39:09.606Z,101063.69
2022-07-29T08:41:36.532Z,101055.75
2022-07-29T08:44:03.383Z,101058.09
2022-07-29T08:46:30.036Z,101059.22
2022-07-29T08:48:56.823Z,101057.09
2022-07-29T08:51:26.653Z,101056.38
2022-07-29T08:53:55.433Z,101052.81
2022-07-29T08:56:24.323Z,101046.53
2022-07-29T08:58:52.298Z,101051.38
2022-07-29T09:01:35.787Z,101044.84
2022-07-29T09:04:07.028Z,101045.25
2022-07-29T09:06:38.359Z,101046.69
2022-07-29T09:09:05.429Z,101051.22
2022-07-29T09:11:38.686Z,101052.94
2022-07-29T09:14:06.750Z,101048.66
2022-07-29T09:16:53.831Z,101049.94
2022-07-29T09:19:25.002Z,101050.94
2022-07-29T09:21:58.586Z,101047.09
2022-07-29T09:24:40.758Z,101045.66
2022-07-29T09:27:19.898Z,101048.06
2022-07-29T09:29:46.636Z,101023.34
2022-07-29T09:32:13.458Z,101034.56
2022-07-29T09:34:40.182Z,101029.84
2022-07-29T09:37:06.905Z,101021.13
2022-07-29T09:39:39.022Z,101017.94
2022-07-29T09:42:07.162Z,101025.69
2022-07-29T09:44:43.944Z,101016.78
2022-07-29T09:47:10.911Z,101014.25
2022-07-29T09:49:51.083Z,101017.16
2022-07-29T09:52:17.815Z,101013.84
2022-07-29T09:54:45.826Z,100998.63
2022-07-29T09:57:30.867Z,100989.78
2022-07-29T10:00:08.086Z,100998.59
2022-07-29T10:02:38.050Z,100997.13
2022-07-29T10:05:07.774Z,101005.72
2022-07-29T10:07:51.748Z,100998.91
2022-07-29T10:10:22.444Z,100995.50
2022-07-29T10:13:01.761Z,100991.75
2022-07-29T10:15:40.092Z,100989.28
2022-07-29T10:18:08.168Z,100992.56
2022-07-29T10:20:35.815Z,100996.78
2022-07-29T10:23:02.630Z,100990.38
2022-07-29T10:25:29.311Z,100982.16
2022-07-29T10:27:56.344Z,100979.94
2022-07-29T10:30:24.441Z,100986.13
2022-07-29T10:33:00.197Z,100985.13
2022-07-29T10:35:45.481Z,100975.22
2022-07-29T10:38:50.880Z,100980.22
2022-07-29T10:41:56.785Z,100971.47
2022-07-29T10:44:26.004Z,100959.13
2022-07-29T10:46:53.426Z,100948.38
2022-07-29T10:49:30.525Z,100949.22
2022-07-29T10:52:00.945Z,100942.06
2022-07-29T10:54:36.620Z,100936.53
2022-07-29T10:57:13.668Z,100926.16
2022-07-29T10:59:43.396Z,100936.53
2022-07-29T11:02:41.300Z,100921.84
2022-07-29T11:05:19.696Z,100924.91
2022-07-29T11:08:20.116Z,100913.09
2022-07-29T11:11:08.055Z,100912.13
2022-07-29T11:13:44.250Z,100912.78
2022-07-29T11:16:11.354Z,100910.44
2022-07-29T11:19:13.247Z,100912.34
2022-07-29T11:21:54.070Z,100918.28
2022-07-29T11:24:32.010Z,100916.91
2022-07-29T11:27:19.819Z,100913.16
2022-07-29T11:30:03.300Z,100906.88
2022-07-29T11:32:38.990Z,100907.50
2022-07-29T11:35:36.803Z,100906.53
2022-07-29T11:38:23.301Z,100902.63
2022-07-29T11:41:18.084Z,100902.97
2022-07-29T11:43:50.840Z,100906.34
2022-07-29T11:46:39.529Z,100899.34
2022-07-29T11:49:09.194Z,100898.69
2022-07-29T11:51:38.424Z,100888.22
2022-07-29T11:54:27.486Z,100891.03
2022-07-29T11:56:54.981Z,100890.59
2022-07-29T11:59:22.390Z,100894.47
2022-07-29T12:02:12.034Z,100885.78
2022-07-29T12:04:51.479Z,100879.63
2022-07-29T12:07:20.284Z,100884.97
2022-07-29T12:09:56.987Z,100879.59
2022-07-29T12:12:24.615Z,100876.47
2022-07-29T12:14:51.877Z,100879.97
2022-07-29T12:17:35.676Z,100868.16
2022-07-29T12:20:05.046Z,100868.13
2022-07-29T12:22:38.267Z,100856.00
2022-07-29T12:25:32.390Z,100864.16
2022-07-29T12:28:03.239Z,100842.75
2022-07-29T12:30:41.592Z,100832.53
2022-07-29T12:33:13.790Z,100841.44
2022-07-29T12:35:41.079Z,100839.94
2022-07-29T12:38:08.214Z,100840.84
2022-07-29T12:40:34.859Z,100831.75
2022-07-29T12:43:21.564Z,100827.38
2022-07-29T12:45:54.394Z,100823.19
2022-07-29T12:48:41.603Z,100816.63
2022-07-29T12:51:10.090Z,100820.03
2022-07-29T12:53:37.836Z,100829.34
2022-07-29T12:56:15.535Z,100824.41
2022-07-29T12:58:52.734Z,100822.34
2022-07-29T13:01:21.138Z,100803.34
2022-07-29T13:03:59.649Z,100817.78
2022-07-29T13:06:36.602Z,100827.81
2022-07-29T13:09:14.932Z,100817.47
2022-07-29T13:11:48.333Z,100816.75
2022-07-29T13:14:32.773Z,100812.09
2022-07-29T13:17:14.010Z,100800.94
2022-07-29T13:19:48.896Z,100800.22
2022-07-29T13:22:17.750Z,100795.97
2022-07-29T13:24:53.939Z,100805.56
2022-07-29T13:27:25.708Z,100803.69
2022-07-29T13:29:53.485Z,100792.72
2022-07-29T13:32:28.188Z,100785.13
2022-07-29T13:35:01.679Z,100788.66
2022-07-29T13:37:35.090Z,100780.13
2022-07-29T13:40:04.250Z,100792.00
2022-07-29T13:42:31.504Z,100780.25
2022-07-29T13:44:58.127Z,100780.59
2022-07-29T13:47:32.772Z,100771.75
2022-07-29T13:50:01.343Z,100764.22
2022-07-29T13:52:29.017Z,100770.31
2022-07-29T13:54:55.777Z,100757.25
2022-07-29T13:57:22.419Z,100756.88
2022-07-29T13:59:53.711Z,100744.75
2022-07-29T14:02:21.493Z,100739.66
2022-07-29T14:04:53.609Z,100736.41
2022-07-29T14:07:20.489Z,100744.91
2022-07-29T14:09:47.282Z,100752.56
2022-07-29T14:12:14.011Z,100749.41
2022-07-29T14:14:41.057Z,100751.13
2022-07-29T14:17:08.058Z,100744.22
2022-07-29T14:19:39.208Z,100748.44
2022-07-29T14:22:07.530Z,100735.06
2022-07-29T14:24:37.354Z,100734.53
2022-07-29T14:27:05.613Z,100751.63
2022-07-29T14:29:37.354Z,100751.56
2022-07-29T14:32:09.097Z,100745.97
2022-07-29T14:34:37.469Z,100743.63
2022-07-29T14:37:06.777Z,100743.59
2022-07-29T14:39:36.932Z,100746.13
2022-07-29T14:42:06.385Z,100763.25
2022-07-29T14:44:33.378Z,100760.06
2022-07-29T14:47:01.363Z,100756.22
2022-07-29T14:49:34.582Z,100756.81
2022-07-29T14:52:01.476Z,100754.06
2022-07-29T14:54:28.308Z,100749.63
2022-07-29T14:56:58.026Z,100764.97
2022-07-29T14:59:25.196Z,100754.88
2022-07-29T15:01:52.084Z,100757.22
2022-07-29T15:04:18.804Z,100759.78
2022-07-29T15:06:45.507Z,100754.34
2022-07-29T15:09:12.152Z,100762.59
2022-07-29T15:11:39.994Z,100768.00
2022-07-29T15:14:07.313Z,100787.53
2022-07-29T15:16:37.074Z,100797.69
2022-07-29T15:19:05.331Z,100792.44
2022-07-29T15:21:32.343Z,100784.84
2022-07-29T15:23:59.468Z,100802.94
2022-07-29T15:26:26.663Z,100809.84
2022-07-29T15:28:53.444Z,100802.03
2022-07-29T15:31:20.268Z,100798.56
2022-07-29T15:33:46.993Z,100809.19
2022-07-29T15:36:30.323Z,100814.53
2022-07-29T15:39:01.485Z,100814.31
2022-07-29T15:41:28.365Z,100809.03
2022-07-29T15:43:54.981Z,100799.28
2022-07-29T15:46:40.228Z,100794.81
2022-07-29T15:49:07.664Z,100795.28
2022-07-29T15:51:34.675Z,100771.94
2022-07-29T15:54:05.407Z,100778.63
2022-07-29T15:56:32.654Z,100796.28
2022-07-29T15:59:00.038Z,100799.50
2022-07-29T16:01:28.444Z,100795.25
2022-07-29T16:03:55.360Z,100797.84
2022-07-29T16:06:22.684Z,100801.63
2022-07-29T16:08:49.480Z,100805.25
2022-07-29T16:11:17.897Z,100814.47
2022-07-29T16:13:44.556Z,100834.59
2022-07-29T16:16:13.002Z,100851.28
2022-07-29T16:18:39.771Z,100849.59
2022-07-29T16:21:06.475Z,100862.59
2022-07-29T16:23:33.216Z,100850.28
2022-07-29T16:26:01.075Z,100841.25
2022-07-29T16:28:29.254Z,100844.59
2022-07-29T16:30:55.970Z,100847.19
2022-07-29T16:33:23.673Z,100843.84
2022-07-29T16:35:51.540Z,100842.25
2022-07-29T16:38:18.775Z,100833.19
2022-07-29T16:40:46.613Z,100832.91
2022-07-29T16:43:13.640Z,100836.28
2022-07-29T16:45:45.297Z,100831.91
2022-07-29T16:48:18.069Z,100837.31
2022-07-29T16:50:45.529Z,100832.88
2022-07-29T16:53:12.158Z,100828.47
2022-07-29T16:55:39.016Z,100820.25
2022-07-29T16:58:09.816Z,100820.13
2022-07-29T17:03:11.528Z,100813.16
2022-07-29T17:05:52.526Z,100813.44
2022-07-29T17:08:21.372Z,100805.63
2022-07-29T17:10:48.285Z,100815.47
2022-07-29T17:13:15.240Z,100809.03
2022-07-29T17:15:44.688Z,100808.47
2022-07-29T17:18:12.855Z,100801.53
2022-07-29T17:20:41.316Z,100801.59
2022-07-29T17:23:08.091Z,100807.66
2022-07-29T17:25:34.936Z,100810.03
2022-07-29T17:28:01.716Z,100805.72
2022-07-29T17:30:29.668Z,100806.09
2022-07-29T17:32:56.816Z,100813.28
2022-07-29T17:35:42.615Z,100814.00
2022-07-29T17:38:09.366Z,100828.31
2022-07-29T17:40:36.129Z,100835.13
2022-07-29T17:43:04.805Z,100840.75
2022-07-29T17:45:49.817Z,100837.13
2022-07-29T17:48:17.784Z,100843.97
2022-07-29T17:50:44.713Z,100843.19
2022-07-29T17:53:16.211Z,100845.69
2022-07-29T17:55:48.648Z,100843.69
2022-07-29T17:58:16.423Z,100849.66
2022-07-29T18:00:43.796Z,100857.72
2022-07-29T18:03:10.990Z,100855.03
2022-07-29T18:05:37.780Z,100852.44
2022-07-29T18:08:05.218Z,100862.44
2022-07-29T18:10:32.236Z,100864.16
2022-07-29T18:12:58.952Z,100864.53
2022-07-29T18:15:25.822Z,100860.66
2022-07-29T18:17:57.581Z,100854.38
2022-07-29T18:20:27.946Z,100859.28
2022-07-29T18:22:55.647Z,100847.47
2022-07-29T18:25:22.583Z,100847.88
2022-07-29T18:27:49.938Z,100836.56
2022-07-29T18:30:16.854Z,100835.09
2022-07-29T18:32:59.290Z,100833.06
2022-07-29T18:35:30.824Z,100835.78
2022-07-29T18:38:02.014Z,100841.13
2022-07-29T18:40:29.699Z,100831.16
2022-07-29T18:42:57.201Z,100839.09
2022-07-29T18:45:28.615Z,100844.75
2022-07-29T18:47:56.025Z,100826.94
2022-07-29T18:50:28.840Z,100833.22
2022-07-29T18:52:58.789Z,100828.66
2022-07-29T18:55:27.206Z,100823.03
2022-07-29T18:57:56.068Z,100824.28
2022-07-29T19:00:24.789Z,100827.03
2022-07-29T19:02:52.627Z,100829.63
2022-07-29T19:05:19.683Z,100825.47
2022-07-29T19:07:47.501Z,100827.88
2022-07-29T19:10:14.581Z,100842.81
2022-07-29T19:12:41.604Z,100860.34
2022-07-29T19:15:10.949Z,100866.66
2022-07-29T19:17:38.708Z,100872.09
2022-07-29T19:20:07.284Z,100870.00
2022-07-29T19:22:34.505Z,100860.22
2022-07-29T19:25:01.451Z,100864.38
2022-07-29T19:27:28.454Z,100874.06
2022-07-29T19:29:58.937Z,100879.41
2022-07-29T19:32:26.342Z,100894.91
2022-07-29T19:35:12.127Z,100922.69
2022-07-29T19:37:39.072Z,100936.09
2022-07-29T19:40:07.073Z,100919.75
2022-07-29T19:42:34.190Z,100906.38
2022-07-29T19:45:02.104Z,100912.44
2022-07-29T19:47:28.773Z,100901.19
2022-07-29T19:49:56.156Z,100892.63
2022-07-29T19:52:22.790Z,100897.66
2022-07-29T19:54:49.668Z,100885.16
2022-07-29T19:57:16.633Z,100889.28
2022-07-29T19:59:44.989Z,100889.28
2022-07-29T20:02:12.547Z,100886.66
2022-07-29T20:04:40.251Z,100899.44
2022-07-29T20:07:07.642Z,100916.75
2022-07-29T20:09:34.541Z,100910.78
2022-07-29T20:12:01.154Z,100915.66
2022-07-29T20:14:27.918Z,100911.13
2022-07-29T20:16:54.841Z,100919.41
2022-07-29T20:19:21.809Z,100923.78
2022-07-29T20:21:48.455Z,100929.88
2022-07-29T20:24:15.230Z,100945.81
2022-07-29T20:26:41.890Z,100947.38
2022-07-29T20:29:09.193Z,100939.00
2022-07-29T20:31:36.175Z,100941.97
2022-07-29T20:34:03.208Z,100947.81
2022-07-29T20:36:30.028Z,100954.63
2022-07-29T20:38:57.022Z,100957.28
2022-07-29T20:41:23.739Z,100964.81
2022-07-29T20:43:50.408Z,100966.00
2022-07-29T20:46:18.187Z,100974.47
2022-07-29T20:48:45.765Z,100979.59
2022-07-29T20:51:13.218Z,100998.06
2022-07-29T20:53:41.132Z,100986.72
2022-07-29T20:56:08.041Z,100987.25
2022-07-29T20:58:36.401Z,100993.56
2022-07-29T21:01:05.030Z,100996.84
2022-07-29T21:03:33.000Z,100994.97
2022-07-29T21:06:00.382Z,100981.47
2022-07-29T21:08:27.161Z,100983.81
2022-07-29T21:10:54.466Z,100978.09
2022-07-29T21:13:23.174Z,100973.94
2022-07-29T21:15:51.674Z,100983.97
2022-07-29T21:18:32.614Z,100991.06
2022-07-29T21:21:04.591Z,100988.63
2022-07-29T21:23:31.943Z,100989.75
2022-07-29T21:25:58.795Z,100997.38
2022-07-29T21:28:40.218Z,100981.25
2022-07-29T21:31:12.615Z,100988.22
2022-07-29T21:33:42.600Z,100985.13
2022-07-29T21:36:42.706Z,100995.66
2022-07-29T21:38:58.357Z,100989.75
2022-07-29T21:41:25.628Z,100999.16
2022-07-29T21:43:54.678Z,101013.22
2022-07-29T21:46:26.187Z,101017.31
2022-07-29T21:48:53.016Z,101016.47
2022-07-29T21:51:19.714Z,101015.63
2022-07-29T21:53:46.327Z,101017.53
2022-07-29T21:56:14.924Z,101024.25
2022-07-29T21:58:43.296Z,101025.47
2022-07-29T22:01:10.072Z,101023.16
2022-07-29T22:03:36.720Z,101033.41
2022-07-29T22:06:03.477Z,101033.41
2022-07-29T22:08:30.231Z,101028.53
2022-07-29T22:10:56.862Z,101014.38
2022-07-29T22:13:23.506Z,101037.66
2022-07-29T22:15:50.501Z,101032.75
2022-07-29T22:18:20.463Z,101035.97
2022-07-29T22:20:47.520Z,101038.66
2022-07-29T22:23:14.180Z,101039.78
2022-07-29T22:25:40.935Z,101027.81
2022-07-29T22:28:07.621Z,101033.72
2022-07-29T22:30:37.413Z,101037.81
2022-07-29T22:33:04.218Z,101041.84
2022-07-29T22:35:30.944Z,101039.06
2022-07-29T22:38:01.175Z,101038.47
2022-07-29T22:40:30.494Z,101038.47
2022-07-29T22:42:57.530Z,101038.47
2022-07-29T22:45:24.632Z,101031.22
2022-07-29T22:47:55.947Z,101024.72
2022-07-29T22:50:26.445Z,101035.97
2022-07-29T22:52:53.319Z,101030.56
2022-07-29T22:55:20.095Z,101034.44
2022-07-29T22:57:46.822Z,101034.44
2022-07-29T23:00:14.293Z,101038.34
2022-07-29T23:02:41.572Z,101039.22
2022-07-29T23:05:09.265Z,101028.41
2022-07-29T23:07:36.203Z,101034.66
2022-07-29T23:10:04.696Z,101032.50
2022-07-29T23:12:32.600Z,101034.91
2022-07-29T23:14:59.307Z,101028.22
2022-07-29T23:17:27.541Z,101026.63
2022-07-29T23:19:54.218Z,101018.34
2022-07-29T23:22:20.817Z,101020.38
2022-07-29T23:24:48.009Z,101028.13
2022-07-29T23:27:14.702Z,101019.09
2022-07-29T23:29:42.622Z,101010.44
2022-07-29T23:32:09.323Z,101011.81
2022-07-29T23:34:36.061Z,101004.66
2022-07-29T23:37:03.145Z,101005.81
2022-07-29T23:39:30.201Z,101011.75
2022-07-29T23:41:56.990Z,101001.22
2022-07-29T23:44:24.044Z,100998.59
2022-07-29T23:46:50.874Z,100996.28
2022-07-29T23:49:17.918Z,101002.25
2022-07-29T23:51:44.715Z,101000.22
2022-07-29T23:54:11.522Z,101005.69
2022-07-29T23:56:38.296Z,101005.69
2022-07-29T23:59:05.900Z,101002.78
